createdAt,value
2017-10-30T00:00:04.042Z,23.83
2017-10-30T00:02:30.619Z,24.10
2017-10-30T00:04:57.208Z,23.47
2017-10-30T00:07:23.818Z,11.93
2017-10-30T00:09:50.397Z,15.43
2017-10-30T00:12:17.138Z,24.20
2017-10-30T00:14:43.713Z,21.90
2017-10-30T00:17:10.316Z,24.13
2017-10-30T00:19:36.908Z,24.73
2017-10-30T00:22:03.547Z,21.77
2017-10-30T00:24:30.139Z,33.83
2017-10-30T00:26:56.715Z,33.20
2017-10-30T00:29:23.429Z,18.80
2017-10-30T00:31:50.000Z,30.13
2017-10-30T00:34:16.619Z,35.43
2017-10-30T00:36:43.245Z,26.97
2017-10-30T00:39:09.956Z,21.10
2017-10-30T00:41:36.541Z,17.60
2017-10-30T00:44:03.155Z,17.57
2017-10-30T00:46:29.984Z,21.50
2017-10-30T00:48:56.569Z,30.93
2017-10-30T00:51:23.164Z,27.53
2017-10-30T00:53:49.753Z,19.40
2017-10-30T00:56:16.344Z,23.50
2017-10-30T00:58:42.944Z,23.40
2017-10-30T01:01:09.719Z,18.80
2017-10-30T01:03:36.336Z,21.20
2017-10-30T01:06:02.980Z,19.57
2017-10-30T01:08:29.564Z,32.77
2017-10-30T01:10:56.203Z,25.23
2017-10-30T01:13:22.769Z,18.80
2017-10-30T01:15:49.364Z,16.33
2017-10-30T01:18:15.985Z,21.33
2017-10-30T01:20:42.587Z,29.50
2017-10-30T01:23:09.185Z,25.13
2017-10-30T01:25:35.784Z,41.93
2017-10-30T01:28:02.381Z,25.83
2017-10-30T01:30:28.967Z,27.97
2017-10-30T01:32:55.569Z,18.87
2017-10-30T01:35:22.163Z,21.87
2017-10-30T01:37:48.768Z,27.30
2017-10-30T01:40:15.360Z,24.40
2017-10-30T01:42:42.014Z,26.83
2017-10-30T01:45:08.713Z,29.83
2017-10-30T01:47:35.271Z,21.70
2017-10-30T01:50:01.888Z,26.90
2017-10-30T01:52:28.474Z,22.40
2017-10-30T01:54:55.368Z,22.00
2017-10-30T01:57:21.945Z,22.83
2017-10-30T01:59:48.543Z,21.20
2017-10-30T02:02:15.149Z,15.70
2017-10-30T02:04:41.736Z,29.17
2017-10-30T02:07:08.342Z,33.80
2017-10-30T02:09:34.925Z,17.90
2017-10-30T02:12:01.526Z,19.90
2017-10-30T02:14:28.108Z,25.77
2017-10-30T02:16:54.717Z,30.30
2017-10-30T02:19:21.312Z,19.13
2017-10-30T02:21:47.903Z,12.40
2017-10-30T02:24:14.498Z,25.63
2017-10-30T02:26:41.076Z,9.47
2017-10-30T02:29:07.685Z,21.40
2017-10-30T02:31:34.266Z,19.20
2017-10-30T02:34:00.867Z,19.67
2017-10-30T02:36:27.463Z,17.57
2017-10-30T02:38:54.064Z,19.20
2017-10-30T02:41:20.649Z,17.40
2017-10-30T02:43:47.251Z,20.57
2017-10-30T02:46:13.845Z,19.60
2017-10-30T02:48:40.433Z,14.73
2017-10-30T02:51:07.040Z,20.17
2017-10-30T02:53:33.634Z,20.53
2017-10-30T02:56:00.239Z,33.17
2017-10-30T02:58:26.838Z,29.47
2017-10-30T03:00:53.437Z,24.97
2017-10-30T03:03:20.020Z,15.20
2017-10-30T03:05:46.623Z,20.03
2017-10-30T03:08:13.209Z,19.67
2017-10-30T03:10:39.811Z,27.23
2017-10-30T03:13:06.423Z,21.93
2017-10-30T03:15:33.021Z,16.47
2017-10-30T03:17:59.940Z,23.10
2017-10-30T03:20:26.544Z,25.40
2017-10-30T03:22:53.123Z,31.13
2017-10-30T03:25:19.715Z,21.77
2017-10-30T03:27:47.033Z,18.62
2017-10-30T03:30:13.630Z,14.00
2017-10-30T03:32:40.247Z,18.00
2017-10-30T03:35:06.850Z,31.73
2017-10-30T03:37:33.424Z,27.63
2017-10-30T03:40:00.034Z,17.70
2017-10-30T03:42:26.621Z,27.37
2017-10-30T03:44:53.222Z,37.50
2017-10-30T03:47:19.819Z,18.10
2017-10-30T03:49:46.425Z,23.07
2017-10-30T03:52:13.004Z,21.07
2017-10-30T03:54:39.616Z,33.77
2017-10-30T03:57:06.229Z,29.37
2017-10-30T03:59:32.834Z,27.40
2017-10-30T04:01:59.410Z,17.63
2017-10-30T04:04:26.009Z,32.53
2017-10-30T04:06:52.612Z,30.40
2017-10-30T04:09:19.200Z,31.50
2017-10-30T04:11:45.795Z,21.87
2017-10-30T04:14:12.386Z,21.77
2017-10-30T04:16:38.988Z,24.57
2017-10-30T04:19:05.576Z,17.40
2017-10-30T04:21:32.176Z,20.90
2017-10-30T04:23:58.762Z,22.43
2017-10-30T04:26:25.832Z,18.43
2017-10-30T04:28:52.414Z,30.80
2017-10-30T04:31:19.020Z,20.97
2017-10-30T04:33:45.648Z,25.40
2017-10-30T04:36:12.244Z,29.67
2017-10-30T04:38:38.853Z,20.67
2017-10-30T04:41:05.432Z,29.87
2017-10-30T04:43:33.004Z,29.53
2017-10-30T04:45:59.763Z,26.67
2017-10-30T04:48:26.339Z,32.07
2017-10-30T04:50:52.957Z,36.47
2017-10-30T04:53:19.574Z,19.73
2017-10-30T04:55:46.152Z,15.97
2017-10-30T04:58:12.752Z,19.63
2017-10-30T05:00:39.337Z,31.43
2017-10-30T05:03:05.958Z,21.30
2017-10-30T05:05:32.545Z,27.47
2017-10-30T05:07:59.131Z,40.30
2017-10-30T05:10:25.764Z,21.90
2017-10-30T05:12:52.347Z,14.60
2017-10-30T05:15:18.940Z,18.20
2017-10-30T05:17:45.520Z,22.83
2017-10-30T05:20:12.121Z,29.60
2017-10-30T05:22:38.718Z,16.30
2017-10-30T05:25:05.343Z,19.63
2017-10-30T05:27:31.938Z,27.30
2017-10-30T05:29:58.515Z,19.83
2017-10-30T05:32:25.142Z,37.67
2017-10-30T05:34:51.732Z,19.17
2017-10-30T05:37:18.356Z,35.23
2017-10-30T05:39:44.932Z,28.07
2017-10-30T05:42:11.555Z,28.30
2017-10-30T05:44:38.125Z,21.60
2017-10-30T05:47:05.284Z,31.57
2017-10-30T05:49:31.884Z,20.63
2017-10-30T05:51:58.515Z,23.53
2017-10-30T05:54:25.092Z,20.30
2017-10-30T05:56:51.684Z,25.63
2017-10-30T05:59:18.289Z,27.33
2017-10-30T06:01:44.868Z,36.37
2017-10-30T06:04:11.469Z,37.00
2017-10-30T06:06:38.057Z,31.43
2017-10-30T06:09:04.660Z,22.33
2017-10-30T06:11:31.251Z,31.87
2017-10-30T06:13:57.869Z,26.47
2017-10-30T06:16:24.474Z,25.00
2017-10-30T06:18:51.076Z,32.70
2017-10-30T06:21:17.669Z,33.23
2017-10-30T06:23:44.303Z,31.50
2017-10-30T06:26:10.892Z,27.17
2017-10-30T06:28:37.598Z,24.07
2017-10-30T06:31:04.212Z,32.47
2017-10-30T06:33:30.867Z,30.30
2017-10-30T06:35:57.538Z,22.73
2017-10-30T06:38:24.148Z,29.17
2017-10-30T06:40:50.738Z,29.23
2017-10-30T06:43:17.320Z,33.03
2017-10-30T06:45:43.934Z,37.13
2017-10-30T06:48:10.525Z,26.70
2017-10-30T06:50:37.430Z,29.03
2017-10-30T06:53:04.013Z,22.07
2017-10-30T06:55:30.623Z,31.10
2017-10-30T06:57:57.200Z,18.13
2017-10-30T07:00:23.913Z,22.23
2017-10-30T07:02:56.378Z,20.53
2017-10-30T07:05:23.010Z,19.27
2017-10-30T07:07:49.602Z,27.07
2017-10-30T07:10:16.228Z,29.77
2017-10-30T07:12:42.978Z,17.20
2017-10-30T07:15:09.644Z,29.33
2017-10-30T07:17:36.251Z,30.27
2017-10-30T07:20:02.860Z,19.13
2017-10-30T07:22:29.441Z,22.83
2017-10-30T07:24:56.136Z,27.57
2017-10-30T07:27:22.758Z,14.73
2017-10-30T07:29:49.474Z,16.90
2017-10-30T07:32:16.077Z,38.90
2017-10-30T07:34:42.664Z,17.17
2017-10-30T07:37:09.250Z,21.37
2017-10-30T07:39:35.853Z,14.27
2017-10-30T07:42:02.456Z,27.27
2017-10-30T07:44:29.055Z,22.60
2017-10-30T07:46:55.658Z,22.07
2017-10-30T07:49:22.262Z,17.40
2017-10-30T07:51:49.574Z,17.00
2017-10-30T07:54:16.222Z,19.90
2017-10-30T07:56:42.830Z,15.77
2017-10-30T07:59:09.448Z,17.00
2017-10-30T08:01:36.047Z,30.27
2017-10-30T08:04:02.627Z,17.30
2017-10-30T08:06:29.244Z,23.87
2017-10-30T08:08:55.845Z,21.60
2017-10-30T08:11:22.441Z,17.00
2017-10-30T08:13:49.036Z,15.93
2017-10-30T08:16:15.660Z,27.97
2017-10-30T08:18:43.027Z,16.43
2017-10-30T08:21:09.712Z,24.17
2017-10-30T08:23:36.323Z,16.80
2017-10-30T08:26:02.917Z,22.40
2017-10-30T08:28:29.520Z,17.77
2017-10-30T08:30:56.115Z,26.63
2017-10-30T08:33:22.786Z,11.00
2017-10-30T08:35:49.473Z,15.13
2017-10-30T08:38:16.081Z,18.00
2017-10-30T08:40:42.687Z,13.70
2017-10-30T08:43:09.334Z,16.77
2017-10-30T08:45:35.958Z,14.17
2017-10-30T08:48:02.839Z,16.43
2017-10-30T08:50:29.446Z,7.23
2017-10-30T08:52:56.133Z,16.53
2017-10-30T08:55:22.723Z,7.10
2017-10-30T08:57:49.543Z,15.35
2017-10-30T09:00:16.161Z,10.23
2017-10-30T09:02:42.747Z,15.43
2017-10-30T09:05:09.516Z,7.63
2017-10-30T09:07:36.087Z,21.17
2017-10-30T09:10:02.690Z,14.00
2017-10-30T09:12:29.319Z,11.93
2017-10-30T09:14:55.956Z,13.30
2017-10-30T09:17:22.571Z,12.27
2017-10-30T09:19:49.172Z,19.63
2017-10-30T09:22:15.823Z,23.23
2017-10-30T09:24:42.399Z,7.00
2017-10-30T09:27:09.007Z,16.47
2017-10-30T09:29:35.612Z,8.80
2017-10-30T09:32:02.214Z,13.30
2017-10-30T09:34:28.794Z,16.43
2017-10-30T09:36:55.457Z,21.50
2017-10-30T09:39:22.043Z,13.03
2017-10-30T09:41:49.495Z,13.17
2017-10-30T09:44:16.114Z,10.37
2017-10-30T09:46:42.672Z,8.40
2017-10-30T09:49:09.275Z,10.17
2017-10-30T09:51:35.857Z,4.47
2017-10-30T09:54:02.492Z,11.50
2017-10-30T09:56:29.063Z,16.97
2017-10-30T09:58:55.662Z,13.57
2017-10-30T10:01:22.325Z,6.13
2017-10-30T10:03:48.921Z,15.27
2017-10-30T10:06:15.600Z,8.40
2017-10-30T10:08:42.197Z,10.13
2017-10-30T10:11:08.814Z,7.13
2017-10-30T10:13:35.536Z,6.23
2017-10-30T10:16:02.160Z,16.90
2017-10-30T10:18:28.765Z,17.43
2017-10-30T10:20:55.357Z,7.40
2017-10-30T10:23:21.988Z,11.90
2017-10-30T10:25:48.576Z,10.10
2017-10-30T10:28:15.192Z,16.90
2017-10-30T10:30:41.775Z,5.53
2017-10-30T10:33:08.372Z,12.93
2017-10-30T10:35:34.961Z,9.27
2017-10-30T10:38:01.545Z,7.23
2017-10-30T10:40:28.169Z,8.83
2017-10-30T10:42:54.826Z,11.93
2017-10-30T10:45:21.412Z,9.73
2017-10-30T10:47:47.984Z,5.10
2017-10-30T10:50:14.574Z,11.90
2017-10-30T10:52:41.179Z,2.93
2017-10-30T10:55:07.788Z,7.63
2017-10-30T10:57:34.502Z,9.70
2017-10-30T11:00:01.111Z,11.13
2017-10-30T11:02:27.796Z,21.23
2017-10-30T11:04:54.486Z,7.13
2017-10-30T11:07:21.068Z,11.27
2017-10-30T11:09:47.668Z,4.90
2017-10-30T11:12:14.288Z,11.53
2017-10-30T11:14:40.874Z,7.40
2017-10-30T11:17:07.473Z,12.50
2017-10-30T11:19:34.076Z,7.50
2017-10-30T11:22:00.667Z,14.53
2017-10-30T11:24:27.261Z,8.00
2017-10-30T11:26:53.873Z,6.60
2017-10-30T11:29:20.463Z,6.90
2017-10-30T11:31:47.092Z,5.83
2017-10-30T11:34:13.695Z,5.90
2017-10-30T11:36:40.305Z,7.40
2017-10-30T11:39:06.887Z,6.37
2017-10-30T11:41:33.653Z,14.53
2017-10-30T11:44:00.241Z,4.33
2017-10-30T11:46:26.894Z,7.63
2017-10-30T11:48:53.482Z,4.30
2017-10-30T11:51:20.081Z,5.37
2017-10-30T11:53:46.770Z,6.90
2017-10-30T11:56:13.321Z,8.60
2017-10-30T11:58:40.012Z,7.00
2017-10-30T12:01:06.601Z,5.70
2017-10-30T12:03:33.201Z,18.17
2017-10-30T12:05:59.849Z,6.47
2017-10-30T12:08:26.476Z,14.23
2017-10-30T12:10:53.062Z,3.57
2017-10-30T12:13:19.726Z,9.13
2017-10-30T12:15:46.308Z,7.17
2017-10-30T12:18:13.094Z,7.77
2017-10-30T12:20:40.619Z,5.97
2017-10-30T12:23:07.268Z,8.77
2017-10-30T12:25:33.970Z,5.80
2017-10-30T12:28:00.545Z,7.83
2017-10-30T12:30:27.148Z,5.17
2017-10-30T12:32:53.799Z,24.30
2017-10-30T12:35:20.406Z,6.53
2017-10-30T12:37:46.999Z,5.33
2017-10-30T12:40:13.588Z,7.13
2017-10-30T12:42:40.167Z,9.30
2017-10-30T12:45:06.893Z,10.00
2017-10-30T12:47:33.521Z,7.57
2017-10-30T12:50:00.163Z,6.63
2017-10-30T12:52:26.800Z,10.10
2017-10-30T12:54:53.371Z,4.40
2017-10-30T12:57:20.017Z,6.50
2017-10-30T12:59:46.672Z,4.40
2017-10-30T13:02:13.388Z,6.30
2017-10-30T13:04:40.024Z,10.43
2017-10-30T13:07:07.246Z,8.10
2017-10-30T13:09:33.987Z,9.27
2017-10-30T13:12:01.274Z,5.60
2017-10-30T13:14:28.938Z,10.20
2017-10-30T13:16:55.616Z,7.30
2017-10-30T13:19:22.289Z,3.70
2017-10-30T13:21:48.888Z,9.00
2017-10-30T13:24:15.505Z,10.13
2017-10-30T13:26:42.088Z,7.03
2017-10-30T13:29:08.692Z,15.30
2017-10-30T13:31:35.309Z,8.67
2017-10-30T13:34:01.985Z,7.00
2017-10-30T13:36:28.596Z,11.83
2017-10-30T13:38:55.334Z,4.80
2017-10-30T13:41:21.932Z,4.90
2017-10-30T13:43:48.525Z,2.80
2017-10-30T13:46:15.173Z,7.67
2017-10-30T13:48:41.741Z,8.57
2017-10-30T13:51:08.380Z,15.30
2017-10-30T13:53:34.980Z,6.83
2017-10-30T13:56:01.557Z,7.33
2017-10-30T13:58:28.139Z,12.73
2017-10-30T14:00:54.771Z,7.10
2017-10-30T14:03:21.460Z,5.67
2017-10-30T14:05:48.150Z,8.73
2017-10-30T14:08:14.756Z,9.50
2017-10-30T14:10:41.370Z,10.03
2017-10-30T14:13:08.017Z,10.93
2017-10-30T14:15:34.608Z,10.53
2017-10-30T14:18:01.243Z,15.20
2017-10-30T14:20:27.894Z,4.23
2017-10-30T14:22:55.424Z,6.97
2017-10-30T14:25:22.171Z,9.63
2017-10-30T14:27:48.898Z,9.40
2017-10-30T14:30:15.586Z,12.13
2017-10-30T14:32:42.164Z,9.53
2017-10-30T14:35:08.795Z,12.83
2017-10-30T14:37:35.385Z,14.20
2017-10-30T14:40:02.203Z,10.73
2017-10-30T14:42:28.794Z,4.83
2017-10-30T14:44:55.484Z,8.27
2017-10-30T14:47:22.349Z,10.23
2017-10-30T14:49:49.005Z,10.13
2017-10-30T14:52:16.228Z,12.67
2017-10-30T14:54:45.108Z,13.10
2017-10-30T14:57:11.716Z,12.10
2017-10-30T14:59:38.309Z,8.20
2017-10-30T15:02:04.925Z,6.80
2017-10-30T15:04:31.541Z,5.63
2017-10-30T15:06:58.148Z,8.43
2017-10-30T15:09:24.774Z,6.50
2017-10-30T15:11:51.459Z,12.87
2017-10-30T15:14:18.036Z,7.90
2017-10-30T15:16:44.649Z,14.00
2017-10-30T15:19:11.243Z,9.30
2017-10-30T15:21:37.866Z,10.80
2017-10-30T15:24:04.465Z,8.30
2017-10-30T15:26:31.107Z,9.50
2017-10-30T15:28:57.776Z,7.93
2017-10-30T15:31:24.437Z,6.87
2017-10-30T15:33:51.037Z,3.70
2017-10-30T15:36:17.612Z,7.83
2017-10-30T15:38:44.260Z,6.03
2017-10-30T15:41:10.862Z,7.57
2017-10-30T15:43:37.465Z,13.73
2017-10-30T15:46:04.080Z,10.70
2017-10-30T15:48:30.685Z,3.63
2017-10-30T15:50:57.291Z,6.07
2017-10-30T15:53:23.890Z,7.57
2017-10-30T15:55:50.510Z,11.80
2017-10-30T15:58:17.093Z,5.53
2017-10-30T16:00:43.694Z,6.43
2017-10-30T16:03:10.927Z,5.70
2017-10-30T16:05:37.704Z,11.90
2017-10-30T16:08:04.281Z,8.70
2017-10-30T16:10:30.889Z,12.13
2017-10-30T16:12:57.469Z,5.20
2017-10-30T16:15:24.090Z,20.93
2017-10-30T16:17:50.667Z,6.57
2017-10-30T16:20:17.328Z,12.60
2017-10-30T16:22:43.946Z,9.60
2017-10-30T16:25:10.590Z,8.80
2017-10-30T16:27:37.185Z,6.03
2017-10-30T16:30:03.819Z,10.23
2017-10-30T16:32:30.454Z,5.57
2017-10-30T16:34:57.031Z,6.60
2017-10-30T16:37:23.664Z,19.20
2017-10-30T16:39:50.273Z,11.80
2017-10-30T16:42:16.900Z,7.23
2017-10-30T16:44:45.772Z,9.23
2017-10-30T16:47:12.361Z,9.77
2017-10-30T16:49:38.973Z,12.00
2017-10-30T16:52:05.560Z,11.13
2017-10-30T16:54:32.180Z,5.37
2017-10-30T16:56:58.784Z,13.43
2017-10-30T16:59:25.388Z,7.43
2017-10-30T17:01:51.977Z,4.73
2017-10-30T17:04:18.583Z,6.17
2017-10-30T17:06:45.197Z,10.27
2017-10-30T17:09:11.802Z,17.07
2017-10-30T17:11:38.409Z,7.10
2017-10-30T17:14:04.969Z,10.90
2017-10-30T17:16:31.584Z,4.20
2017-10-30T17:18:58.277Z,9.90
2017-10-30T17:21:25.316Z,8.37
2017-10-30T17:23:51.910Z,6.10
2017-10-30T17:26:18.493Z,10.67
2017-10-30T17:28:45.789Z,7.53
2017-10-30T17:31:12.416Z,8.20
2017-10-30T17:33:39.059Z,11.53
2017-10-30T17:36:05.674Z,13.17
2017-10-30T17:38:32.267Z,16.50
2017-10-30T17:40:58.868Z,8.53
2017-10-30T17:43:25.471Z,6.47
2017-10-30T17:45:53.803Z,6.03
2017-10-30T17:48:20.528Z,8.47
2017-10-30T17:53:22.265Z,14.83
2017-10-30T17:55:48.877Z,13.53
2017-10-30T17:58:15.495Z,5.53
2017-10-30T18:00:42.081Z,9.30
2017-10-30T18:03:08.724Z,12.63
2017-10-30T18:05:35.340Z,8.70
2017-10-30T18:08:01.949Z,13.23
2017-10-30T18:10:28.550Z,8.77
2017-10-30T18:12:55.162Z,12.80
2017-10-30T18:15:21.773Z,10.70
2017-10-30T18:17:48.400Z,8.40
2017-10-30T18:20:15.013Z,8.27
2017-10-30T18:22:41.891Z,8.07
2017-10-30T18:25:08.490Z,9.67
2017-10-30T18:27:35.128Z,7.33
2017-10-30T18:30:01.736Z,9.37
2017-10-30T18:32:28.349Z,6.03
2017-10-30T18:34:54.966Z,11.53
2017-10-30T18:37:21.553Z,9.63
2017-10-30T18:39:49.086Z,13.63
2017-10-30T18:42:15.687Z,12.63
2017-10-30T18:44:42.273Z,6.83
2017-10-30T18:47:08.977Z,10.57
2017-10-30T18:49:35.570Z,8.17
2017-10-30T18:52:02.172Z,7.73
2017-10-30T18:54:28.784Z,8.63
2017-10-30T18:56:55.403Z,8.40
2017-10-30T18:59:21.988Z,8.73
2017-10-30T19:01:48.640Z,14.20
2017-10-30T19:04:15.256Z,11.77
2017-10-30T19:06:41.915Z,16.60
2017-10-30T19:09:08.490Z,11.73
2017-10-30T19:11:35.146Z,9.07
2017-10-30T19:14:01.750Z,8.33
2017-10-30T19:16:28.370Z,11.90
2017-10-30T19:18:55.020Z,13.53
2017-10-30T19:21:21.603Z,9.50
2017-10-30T19:23:48.235Z,13.57
2017-10-30T19:26:14.846Z,13.63
2017-10-30T19:28:41.470Z,18.30
2017-10-30T19:31:08.140Z,10.27
2017-10-30T19:33:34.846Z,10.23
2017-10-30T19:36:01.470Z,12.83
2017-10-30T19:38:28.596Z,8.50
2017-10-30T19:40:55.197Z,17.33
2017-10-30T19:43:21.805Z,12.20
2017-10-30T19:45:48.397Z,7.37
2017-10-30T19:48:14.983Z,10.00
2017-10-30T19:50:41.602Z,14.17
2017-10-30T19:53:08.253Z,12.43
2017-10-30T19:55:34.876Z,15.60
2017-10-30T19:58:01.525Z,10.57
2017-10-30T20:00:28.167Z,21.90
2017-10-30T20:02:54.805Z,12.07
2017-10-30T20:05:27.167Z,14.80
2017-10-30T20:07:54.289Z,10.68
2017-10-30T20:10:27.402Z,14.73
2017-10-30T20:12:54.229Z,10.95
2017-10-30T20:15:20.997Z,13.27
2017-10-30T20:17:47.605Z,13.97
2017-10-30T20:20:14.230Z,15.90
2017-10-30T20:22:41.762Z,13.40
2017-10-30T20:25:08.358Z,15.50
2017-10-30T20:27:34.976Z,14.17
2017-10-30T20:30:01.607Z,14.70
2017-10-30T20:32:28.459Z,17.67
2017-10-30T20:34:55.077Z,28.73
2017-10-30T20:37:21.701Z,28.43
2017-10-30T20:39:48.328Z,18.90
2017-10-30T20:42:14.933Z,14.10
2017-10-30T20:44:41.620Z,15.13
2017-10-30T20:47:08.301Z,10.70
2017-10-30T20:49:34.890Z,9.30
2017-10-30T20:52:01.513Z,11.70
2017-10-30T20:54:28.112Z,11.20
2017-10-30T20:56:57.653Z,22.10
2017-10-30T20:59:24.391Z,22.30
2017-10-30T21:01:51.005Z,16.90
2017-10-30T21:04:17.623Z,10.10
2017-10-30T21:06:44.407Z,11.13
2017-10-30T21:09:10.989Z,17.17
2017-10-30T21:11:37.655Z,14.70
2017-10-30T21:14:04.231Z,12.93
2017-10-30T21:16:30.843Z,22.73
2017-10-30T21:18:57.768Z,9.93
2017-10-30T21:21:24.386Z,10.43
2017-10-30T21:23:51.017Z,13.67
2017-10-30T21:26:17.629Z,19.87
2017-10-30T21:28:44.466Z,19.40
2017-10-30T21:31:11.040Z,13.30
2017-10-30T21:33:37.646Z,16.93
2017-10-30T21:36:05.442Z,11.67
2017-10-30T21:38:32.060Z,19.07
2017-10-30T21:40:58.677Z,19.97
2017-10-30T21:43:25.396Z,10.83
2017-10-30T21:45:52.006Z,9.53
2017-10-30T21:48:18.854Z,18.77
2017-10-30T21:50:45.495Z,14.70
2017-10-30T21:53:12.092Z,13.30
2017-10-30T21:55:38.722Z,13.03
2017-10-30T21:58:05.495Z,19.97
2017-10-30T22:00:32.294Z,8.07
2017-10-30T22:02:58.932Z,14.73
2017-10-30T22:05:25.651Z,14.17
2017-10-30T22:07:52.360Z,15.30
2017-10-30T22:10:19.094Z,13.40
2017-10-30T22:12:45.734Z,10.67
2017-10-30T22:15:12.540Z,15.23
2017-10-30T22:17:52.264Z,19.03
2017-10-30T22:20:18.925Z,10.93
2017-10-30T22:22:45.679Z,13.30
2017-10-30T22:25:12.871Z,16.80
2017-10-30T22:27:39.494Z,28.20
2017-10-30T22:30:06.116Z,14.13
2017-10-30T22:32:32.697Z,15.87
2017-10-30T22:34:59.309Z,17.03
2017-10-30T22:37:25.896Z,16.90
2017-10-30T22:39:52.516Z,11.43
2017-10-30T22:42:19.193Z,16.57
2017-10-30T22:44:45.882Z,16.33
2017-10-30T22:47:12.511Z,22.03
2017-10-30T22:49:39.183Z,13.03
2017-10-30T22:52:05.761Z,15.73
2017-10-30T22:54:32.367Z,11.87
2017-10-30T22:56:58.961Z,7.77
2017-10-30T22:59:25.530Z,9.63
2017-10-30T23:01:52.142Z,14.20
2017-10-30T23:04:18.735Z,16.07
2017-10-30T23:06:45.316Z,16.50
2017-10-30T23:09:11.904Z,18.63
2017-10-30T23:11:38.521Z,9.90
2017-10-30T23:14:05.142Z,17.10
2017-10-30T23:16:31.748Z,17.13
2017-10-30T23:18:58.361Z,17.60
2017-10-30T23:21:25.040Z,15.33
2017-10-30T23:23:51.667Z,11.73
2017-10-30T23:26:18.321Z,10.90
2017-10-30T23:28:45.027Z,8.63
2017-10-30T23:31:11.702Z,10.67
2017-10-30T23:33:38.315Z,8.00
2017-10-30T23:36:05.018Z,14.80
2017-10-30T23:38:31.629Z,11.17
2017-10-30T23:40:58.211Z,15.40
2017-10-30T23:43:24.823Z,15.60
2017-10-30T23:45:51.412Z,16.50
2017-10-30T23:48:18.023Z,18.47
2017-10-30T23:50:44.653Z,17.23
2017-10-30T23:53:11.240Z,14.30
2017-10-30T23:55:37.832Z,12.20
2017-10-30T23:58:04.437Z,13.57
